Time;durP1;ratioP1;P1;durP2;ratioP2;P2;SDS_P1;SDS_P2;PMS_P1;PMS_P2;Temp;Humidity;BMP_temperature;BMP_pressure;BME280_temperature;BME280_humidity;BME280_pressure;Samples;Min_cycle;Max_cycle;Signal;HPM_P1;HPM_P2
2022/08/29 00:01:35;;;;;;;14.48;8.40;;;19.30;89.50;;;;;;5074203;28;20114;-10
2022/08/29 00:04:02;;;;;;;14.45;7.80;;;19.30;89.50;;;;;;5073598;28;20028;-9
2022/08/29 00:06:28;;;;;;;12.60;7.47;;;19.30;89.40;;;;;;5073591;28;20020;-10
2022/08/29 00:08:55;;;;;;;19.52;10.15;;;19.30;89.40;;;;;;5073416;28;20021;-10
2022/08/29 00:11:20;;;;;;;15.45;8.98;;;19.40;89.90;;;;;;5073411;28;20025;-9
2022/08/29 00:13:46;;;;;;;15.38;7.82;;;19.40;90.00;;;;;;5073347;28;20442;-10
2022/08/29 00:16:12;;;;;;;15.40;8.27;;;19.40;90.00;;;;;;5073380;28;20025;-10
2022/08/29 00:18:39;;;;;;;15.82;8.63;;;19.50;89.90;;;;;;5073396;28;20025;-9
2022/08/29 00:21:05;;;;;;;19.20;10.20;;;19.50;89.80;;;;;;5073429;28;20029;-10
2022/08/29 00:23:31;;;;;;;24.17;11.80;;;19.50;90.60;;;;;;5073261;28;20028;-10
2022/08/29 00:25:57;;;;;;;17.50;9.30;;;19.50;90.80;;;;;;5071838;28;20507;-9
2022/08/29 00:28:23;;;;;;;21.02;11.15;;;19.50;90.50;;;;;;5073206;28;20029;-9
2022/08/29 00:30:49;;;;;;;26.70;12.02;;;19.50;90.50;;;;;;5073253;28;20028;-10
2022/08/29 00:33:16;;;;;;;27.85;12.68;;;19.50;91.10;;;;;;5073839;28;20488;-9
2022/08/29 00:35:44;;;;;;;22.05;10.52;;;19.50;91.50;;;;;;5073511;28;20499;-9
2022/08/29 00:38:13;;;;;;;14.48;8.43;;;19.50;91.50;;;;;;5073432;28;20031;-10
2022/08/29 00:40:49;;;;;;;15.45;7.95;;;19.50;91.10;;;;;;5073368;28;20021;-10
2022/08/29 00:43:17;;;;;;;15.77;8.50;;;19.40;90.30;;;;;;5073512;28;20492;-9
2022/08/29 00:45:55;;;;;;;14.85;8.35;;;19.50;90.10;;;;;;5073064;28;20031;-10
2022/08/29 00:48:22;;;;;;;15.77;8.40;;;19.40;89.90;;;;;;5073329;28;20032;-9
2022/08/29 00:50:56;;;;;;;22.20;10.68;;;19.50;89.90;;;;;;5072595;28;20416;-11
2022/08/29 00:53:33;;;;;;;18.92;11.05;;;19.50;90.00;;;;;;5073049;28;20028;-9
2022/08/29 00:56:01;;;;;;;20.55;11.25;;;19.50;89.90;;;;;;5073357;28;20055;-9
2022/08/29 00:58:39;;;;;;;17.02;9.93;;;19.50;89.80;;;;;;5073149;28;20028;-10
2022/08/29 01:01:06;;;;;;;22.10;12.55;;;19.60;89.90;;;;;;5072762;28;20036;-9
2022/08/29 01:03:34;;;;;;;23.85;12.43;;;19.60;89.80;;;;;;5072897;28;20118;-10
2022/08/29 01:06:02;;;;;;;17.55;10.32;;;19.60;89.80;;;;;;5072868;28;20043;-9
2022/08/29 01:08:29;;;;;;;16.02;9.52;;;19.60;90.00;;;;;;5073170;28;20028;-10
2022/08/29 01:13:44;;;;;;;20.00;10.73;;;19.60;89.90;;;;;;5073268;28;20110;-9
2022/08/29 01:16:13;;;;;;;27.77;13.90;;;19.70;89.80;;;;;;5072761;28;20357;-9
2022/08/29 01:18:42;;;;;;;23.25;12.10;;;19.70;89.90;;;;;;5072759;28;20036;-9
2022/08/29 01:21:37;;;;;;;19.10;10.70;;;19.70;89.90;;;;;;5072500;28;20031;-9
2022/08/29 01:24:21;;;;;;;18.08;10.73;;;19.80;89.90;;;;;;5072732;28;20031;-9
2022/08/29 01:26:47;;;;;;;23.40;11.77;;;19.80;89.80;;;;;;5072823;28;20032;-10
2022/08/29 01:29:14;;;;;;;19.13;11.82;;;19.90;89.80;;;;;;5072556;28;20021;-9
2022/08/29 01:31:46;;;;;;;18.48;10.48;;;19.90;89.80;;;;;;5072784;28;20472;-9
2022/08/29 01:34:14;;;;;;;27.67;14.05;;;19.90;89.80;;;;;;5072949;28;20033;-9
2022/08/29 01:36:52;;;;;;;20.77;11.57;;;19.90;89.80;;;;;;5072524;28;20029;-9
2022/08/29 01:39:22;;;;;;;17.88;10.57;;;19.90;89.90;;;;;;5075816;28;20028;-9
2022/08/29 01:41:49;;;;;;;18.98;10.75;;;19.90;89.80;;;;;;5076627;28;20031;-9
2022/08/29 01:44:18;;;;;;;16.60;9.65;;;19.90;89.80;;;;;;5076713;28;20190;-9
2022/08/29 01:46:46;;;;;;;24.67;12.80;;;19.90;89.90;;;;;;5076515;28;20055;-9
2022/08/29 01:49:14;;;;;;;16.45;9.95;;;20.00;89.90;;;;;;5076055;28;20023;-9
2022/08/29 01:51:40;;;;;;;16.30;9.75;;;20.00;89.80;;;;;;5075795;28;20045;-9
2022/08/29 01:54:09;;;;;;;16.45;9.35;;;20.00;89.90;;;;;;5076078;28;20043;-10
2022/08/29 01:56:39;;;;;;;19.67;11.82;;;20.00;89.80;;;;;;5076037;28;20028;-9
2022/08/29 01:59:09;;;;;;;16.45;9.85;;;20.00;89.90;;;;;;5076008;28;20029;-8
2022/08/29 02:01:38;;;;;;;16.90;9.68;;;20.00;89.80;;;;;;5076385;28;20381;-9
2022/08/29 02:04:07;;;;;;;17.02;9.60;;;20.00;89.90;;;;;;5091626;28;20024;-9
2022/08/29 02:06:34;;;;;;;17.95;10.88;;;20.00;89.90;;;;;;5076051;28;20017;-9
2022/08/29 02:09:00;;;;;;;15.80;10.27;;;20.10;89.90;;;;;;5074520;28;20024;-9
2022/08/29 02:11:26;;;;;;;17.30;10.10;;;20.10;89.90;;;;;;5075652;28;20499;-9
2022/08/29 02:13:56;;;;;;;17.08;10.60;;;20.10;89.90;;;;;;5075894;28;20032;-9
2022/08/29 02:16:26;;;;;;;14.25;8.90;;;20.10;89.90;;;;;;5075683;28;20093;-10
2022/08/29 02:18:52;;;;;;;15.70;9.27;;;20.10;89.90;;;;;;5075611;28;20365;-9
2022/08/29 02:21:21;;;;;;;14.30;9.02;;;20.10;89.90;;;;;;5075924;28;20025;-9
2022/08/29 02:23:51;;;;;;;14.65;9.05;;;20.10;89.80;;;;;;5075741;28;20041;-9
2022/08/29 02:26:19;;;;;;;17.15;10.35;;;20.10;89.70;;;;;;5075844;28;20042;-9
2022/08/29 02:28:46;;;;;;;16.48;10.38;;;20.20;89.80;;;;;;5075496;28;20031;-9
2022/08/29 02:31:12;;;;;;;17.38;9.80;;;20.10;89.90;;;;;;5075195;28;20025;-9
2022/08/29 02:33:39;;;;;;;16.52;9.88;;;20.10;89.90;;;;;;5075582;28;20438;-10
2022/08/29 02:36:07;;;;;;;16.00;9.55;;;20.20;89.90;;;;;;5075347;28;20438;-9
2022/08/29 02:38:34;;;;;;;16.52;9.63;;;20.20;89.90;;;;;;5075280;28;20029;-9
2022/08/29 02:41:01;;;;;;;16.50;10.80;;;20.20;89.90;;;;;;5075331;28;20031;-10
2022/08/29 02:43:27;;;;;;;26.63;14.23;;;20.10;89.90;;;;;;5075113;28;20056;-9
2022/08/29 02:45:54;;;;;;;17.98;11.02;;;20.20;90.00;;;;;;5075107;28;20496;-9
2022/08/29 02:48:20;;;;;;;18.80;9.60;;;20.20;90.00;;;;;;5074956;28;20028;-9
2022/08/29 02:50:49;;;;;;;16.98;9.30;;;20.10;90.00;;;;;;5074766;28;20045;-10
2022/08/29 02:53:18;;;;;;;18.50;9.57;;;20.20;90.00;;;;;;5075407;28;20029;-9
2022/08/29 02:55:46;;;;;;;14.77;9.63;;;20.20;90.00;;;;;;5074907;28;20020;-8
2022/08/29 02:58:12;;;;;;;16.90;9.35;;;20.10;90.00;;;;;;5075112;28;20052;-9
2022/08/29 03:00:39;;;;;;;18.00;10.23;;;20.20;90.00;;;;;;5074847;28;20485;-9
2022/08/29 03:03:06;;;;;;;19.42;10.48;;;20.20;90.00;;;;;;5074663;28;20032;-9
2022/08/29 03:05:36;;;;;;;14.23;8.52;;;20.20;90.00;;;;;;5074762;28;20056;-10
2022/08/29 03:08:06;;;;;;;16.95;9.93;;;20.20;90.10;;;;;;5074758;28;20362;-9
2022/08/29 03:10:32;;;;;;;21.88;10.48;;;20.20;90.00;;;;;;5074552;28;20032;-9
2022/08/29 03:12:58;;;;;;;18.20;9.85;;;20.20;90.00;;;;;;5074537;28;20028;-10
2022/08/29 03:15:25;;;;;;;14.07;8.35;;;20.20;90.00;;;;;;5090201;28;20086;-9
2022/08/29 03:17:51;;;;;;;12.15;7.82;;;20.20;90.00;;;;;;5090083;28;20028;-9
2022/08/29 03:20:19;;;;;;;15.57;9.88;;;20.20;90.00;;;;;;5074762;28;20033;-10
2022/08/29 03:22:49;;;;;;;19.52;10.70;;;20.20;89.90;;;;;;5074633;28;20115;-10
2022/08/29 03:25:16;;;;;;;18.15;11.35;;;20.20;90.00;;;;;;5074174;28;20498;-9
2022/08/29 03:27:42;;;;;;;18.05;10.18;;;20.20;90.00;;;;;;5074779;28;20023;-9
2022/08/29 03:30:11;;;;;;;17.20;9.98;;;20.20;89.90;;;;;;5074142;28;20020;-9
2022/08/29 03:32:38;;;;;;;17.25;10.30;;;20.20;90.00;;;;;;5073990;28;20021;-9
2022/08/29 03:35:05;;;;;;;18.50;10.55;;;20.20;90.00;;;;;;5073945;28;20032;-9
2022/08/29 03:37:31;;;;;;;17.83;10.55;;;20.20;90.00;;;;;;5074348;28;20032;-8
2022/08/29 03:39:57;;;;;;;17.80;10.77;;;20.20;90.00;;;;;;5074295;28;20097;-9
2022/08/29 03:42:24;;;;;;;26.48;13.50;;;20.20;90.00;;;;;;5073986;28;20020;-10
2022/08/29 03:44:49;;;;;;;21.95;12.35;;;20.20;90.10;;;;;;5073664;28;20032;-9
2022/08/29 03:47:15;;;;;;;18.98;10.93;;;20.30;90.00;;;;;;5074173;28;20081;-9
2022/08/29 03:49:41;;;;;;;20.25;11.63;;;20.20;90.00;;;;;;5073826;28;20024;-8
2022/08/29 03:52:10;;;;;;;20.52;10.98;;;20.20;90.10;;;;;;5073659;28;20051;-9
2022/08/29 03:54:37;;;;;;;16.38;8.80;;;20.20;90.10;;;;;;5073866;28;20052;-9
2022/08/29 03:57:07;;;;;;;19.05;10.57;;;20.20;90.10;;;;;;5073522;28;20028;-9
2022/08/29 03:59:34;;;;;;;19.85;11.48;;;20.30;90.10;;;;;;5073909;28;20024;-9
2022/08/29 04:02:00;;;;;;;23.65;13.75;;;20.30;90.00;;;;;;5073354;28;20027;-10
2022/08/29 04:07:14;;;;;;;23.88;11.93;;;20.30;89.90;;;;;;5073410;28;20059;-8
2022/08/29 04:09:40;;;;;;;19.80;11.68;;;20.20;90.00;;;;;;5073498;28;20617;-10
2022/08/29 04:12:11;;;;;;;18.17;11.10;;;20.20;90.00;;;;;;5073596;28;20032;-10
2022/08/29 04:14:38;;;;;;;26.50;14.02;;;20.20;90.00;;;;;;5073515;28;20087;-9
2022/08/29 04:17:04;;;;;;;26.25;14.10;;;20.20;89.90;;;;;;5073179;28;20439;-9
2022/08/29 04:19:30;;;;;;;19.63;11.35;;;20.30;90.00;;;;;;5073689;28;20029;-10
2022/08/29 04:21:56;;;;;;;29.83;15.63;;;20.30;90.00;;;;;;5073322;28;20496;-9
2022/08/29 04:24:24;;;;;;;18.30;11.10;;;20.30;90.00;;;;;;5073336;28;20025;-9
2022/08/29 04:26:49;;;;;;;18.73;9.85;;;20.30;90.00;;;;;;5072977;28;20020;-10
2022/08/29 04:29:15;;;;;;;24.15;11.90;;;20.30;90.00;;;;;;5073170;28;20074;-10
2022/08/29 04:31:42;;;;;;;19.73;12.00;;;20.30;90.00;;;;;;5073141;28;20025;-9
2022/08/29 04:34:10;;;;;;;22.35;12.23;;;20.40;90.00;;;;;;5073202;28;20038;-9
2022/08/29 04:36:40;;;;;;;21.42;11.68;;;20.40;90.00;;;;;;5073123;28;20029;-10
2022/08/29 04:39:07;;;;;;;21.60;12.13;;;20.40;90.00;;;;;;5072951;28;20082;-10
2022/08/29 04:41:35;;;;;;;19.70;11.20;;;20.40;90.00;;;;;;5073735;28;20009;-9
2022/08/29 04:44:02;;;;;;;26.42;15.30;;;20.40;90.00;;;;;;5073440;28;20082;-9
2022/08/29 04:46:28;;;;;;;25.20;14.23;;;20.40;90.00;;;;;;5073057;28;20504;-8
2022/08/29 04:48:54;;;;;;;21.08;12.25;;;20.40;90.00;;;;;;5072855;28;20032;-10
2022/08/29 04:51:21;;;;;;;21.23;11.88;;;20.40;90.00;;;;;;5072732;28;20048;-10
2022/08/29 04:53:49;;;;;;;21.63;12.00;;;20.40;90.00;;;;;;5072922;28;20483;-9
2022/08/29 04:56:15;;;;;;;22.00;13.05;;;20.40;90.00;;;;;;5073162;28;20111;-9
2022/08/29 04:58:42;;;;;;;20.33;11.75;;;20.40;90.10;;;;;;5073180;28;20158;-10
2022/08/29 05:01:12;;;;;;;26.40;15.45;;;20.50;90.10;;;;;;5072993;28;20059;-9
2022/08/29 05:03:38;;;;;;;22.67;13.07;;;20.50;90.10;;;;;;5073250;28;20046;-11
2022/08/29 05:06:08;;;;;;;20.63;12.90;;;20.60;90.10;;;;;;5072883;28;20029;-9
2022/08/29 05:08:39;;;;;;;21.25;12.88;;;20.60;89.90;;;;;;5073088;28;20042;-10
2022/08/29 05:11:08;;;;;;;19.30;12.57;;;20.60;90.00;;;;;;5072927;28;20036;-10
2022/08/29 05:13:34;;;;;;;25.80;14.80;;;20.70;90.00;;;;;;5075030;28;20078;-10
2022/08/29 05:16:12;;;;;;;21.85;12.98;;;20.70;90.10;;;;;;5077132;28;20028;-9
2022/08/29 05:18:38;;;;;;;22.55;13.00;;;20.80;90.20;;;;;;5077459;28;20099;-10
2022/08/29 05:21:06;;;;;;;23.95;13.43;;;20.80;90.20;;;;;;5077188;28;20096;-10
2022/08/29 05:23:32;;;;;;;28.40;13.95;;;20.80;90.40;;;;;;5077034;28;20066;-10
2022/08/29 05:26:01;;;;;;;23.17;14.55;;;20.90;90.20;;;;;;5076947;28;20031;-10
2022/08/29 05:28:29;;;;;;;22.42;12.57;;;20.90;90.20;;;;;;5076716;28;20070;-10
2022/08/29 05:30:55;;;;;;;24.10;13.52;;;20.90;90.10;;;;;;5076539;28;20028;-10
2022/08/29 05:33:21;;;;;;;29.17;15.80;;;21.00;90.10;;;;;;5077102;28;20060;-9
2022/08/29 05:35:47;;;;;;;24.58;13.70;;;21.10;90.00;;;;;;5076783;28;20063;-10
2022/08/29 05:38:13;;;;;;;22.83;13.77;;;21.20;89.90;;;;;;5077010;28;20024;-9
2022/08/29 05:40:40;;;;;;;23.85;14.75;;;21.20;89.80;;;;;;5076631;28;20025;-9
2022/08/29 05:43:08;;;;;;;28.20;17.40;;;21.20;89.80;;;;;;5076334;28;20039;-9
2022/08/29 05:45:36;;;;;;;31.20;17.23;;;21.20;89.70;;;;;;5076180;28;20039;-9
2022/08/29 05:48:06;;;;;;;26.23;15.95;;;21.20;89.70;;;;;;5076529;28;20017;-9
2022/08/29 05:50:37;;;;;;;29.15;17.83;;;21.20;89.70;;;;;;5076107;28;20085;-9
2022/08/29 05:53:03;;;;;;;27.08;16.35;;;21.20;89.80;;;;;;5075905;28;20047;-9
2022/08/29 05:55:29;;;;;;;20.65;14.18;;;21.20;89.80;;;;;;5076315;28;20036;-8
2022/08/29 05:57:55;;;;;;;26.63;17.17;;;21.20;89.80;;;;;;5076481;28;20035;-10
2022/08/29 06:00:21;;;;;;;28.38;17.50;;;21.20;89.80;;;;;;5076202;28;20039;-9
2022/08/29 06:02:47;;;;;;;32.72;18.63;;;21.20;89.90;;;;;;5075871;28;20384;-10
2022/08/29 06:05:13;;;;;;;23.95;15.55;;;21.30;89.90;;;;;;5075885;28;20035;-10
2022/08/29 06:07:38;;;;;;;27.08;16.25;;;21.20;89.90;;;;;;5076097;28;20028;-10
2022/08/29 06:10:07;;;;;;;26.25;16.70;;;21.20;89.90;;;;;;5075798;28;20511;-10
2022/08/29 06:12:34;;;;;;;21.10;14.68;;;21.20;89.90;;;;;;5075654;28;20033;-9
2022/08/29 06:15:01;;;;;;;28.17;16.27;;;21.20;89.90;;;;;;5075385;28;20035;-9
2022/08/29 06:17:27;;;;;;;21.10;15.20;;;21.20;89.90;;;;;;5074468;28;20036;-10
2022/08/29 06:19:53;;;;;;;26.45;15.25;;;21.20;89.90;;;;;;5075918;28;20024;-10
2022/08/29 06:22:21;;;;;;;24.80;15.73;;;21.20;89.90;;;;;;5075874;28;20480;-9
2022/08/29 06:24:47;;;;;;;27.50;19.02;;;21.20;89.90;;;;;;5075272;28;20079;-15
2022/08/29 06:27:13;;;;;;;21.42;14.82;;;21.20;90.00;;;;;;5075563;28;20113;-9
2022/08/29 06:29:40;;;;;;;34.13;24.65;;;21.20;89.90;;;;;;5074125;28;20024;-9
2022/08/29 06:32:06;;;;;;;23.92;16.60;;;21.20;90.00;;;;;;5075328;28;20032;-9
2022/08/29 06:34:32;;;;;;;24.50;18.95;;;21.30;90.00;;;;;;5074156;28;20036;-9
2022/08/29 06:36:58;;;;;;;25.38;20.73;;;21.30;90.00;;;;;;5075058;28;20111;-10
2022/08/29 06:39:24;;;;;;;29.33;17.33;;;21.40;90.00;;;;;;5075245;28;20044;-9
2022/08/29 06:41:50;;;;;;;26.63;15.55;;;21.50;90.00;;;;;;5075514;28;20017;-8
2022/08/29 06:44:16;;;;;;;22.77;14.85;;;21.50;89.90;;;;;;5075349;28;20484;-8
2022/08/29 06:46:47;;;;;;;22.48;16.05;;;21.60;89.80;;;;;;5075474;28;20528;-9
2022/08/29 06:49:15;;;;;;;19.73;14.32;;;21.70;89.70;;;;;;5075333;28;20020;-9
2022/08/29 06:51:47;;;;;;;19.75;13.38;;;21.80;89.70;;;;;;5074732;28;20633;-8
2022/08/29 06:54:14;;;;;;;18.92;13.80;;;21.90;89.50;;;;;;5075082;28;20067;-9
2022/08/29 06:56:40;;;;;;;18.92;14.60;;;22.00;89.10;;;;;;5075315;28;20029;-8
2022/08/29 06:59:07;;;;;;;17.13;12.27;;;22.20;89.30;;;;;;5074740;28;20044;-9
2022/08/29 07:01:34;;;;;;;16.17;12.00;;;22.30;88.80;;;;;;5074924;28;20035;-8
2022/08/29 07:04:02;;;;;;;15.75;11.05;;;22.40;88.40;;;;;;5074789;28;20035;-6
2022/08/29 07:06:29;;;;;;;15.70;11.50;;;22.50;88.20;;;;;;5074726;28;20037;-8
2022/08/29 07:08:56;;;;;;;14.75;11.23;;;22.60;88.00;;;;;;5074872;28;20047;-8
2022/08/29 07:11:28;;;;;;;14.63;11.18;;;22.80;87.80;;;;;;5074553;28;20029;-8
2022/08/29 07:13:57;;;;;;;15.07;10.47;;;23.00;87.40;;;;;;5074888;28;20100;-7
2022/08/29 07:16:23;;;;;;;13.45;10.15;;;23.20;86.50;;;;;;5074830;28;20028;-8
2022/08/29 07:18:49;;;;;;;15.77;10.10;;;23.30;86.40;;;;;;5074360;28;20020;-9
2022/08/29 07:21:18;;;;;;;15.05;10.65;;;23.40;85.90;;;;;;5074326;28;20081;-8
2022/08/29 07:23:44;;;;;;;12.93;9.38;;;23.50;85.60;;;;;;5074385;28;20090;-8
2022/08/29 07:26:21;;;;;;;11.65;8.80;;;23.60;85.30;;;;;;5074322;28;20028;-9
2022/08/29 07:28:49;;;;;;;13.60;9.35;;;23.70;85.30;;;;;;5074022;28;20020;-8
2022/08/29 07:31:15;;;;;;;14.38;10.70;;;23.90;85.20;;;;;;5074225;28;20116;-8
2022/08/29 07:33:41;;;;;;;12.43;8.82;;;24.10;84.50;;;;;;5074501;28;20108;-8
2022/08/29 07:36:08;;;;;;;13.02;9.70;;;24.40;84.20;;;;;;5073649;28;20055;-8
2022/08/29 07:38:35;;;;;;;13.55;9.57;;;24.70;82.90;;;;;;5072929;28;20030;-8
2022/08/29 07:41:05;;;;;;;10.63;7.97;;;24.90;81.90;;;;;;5073839;28;20358;-8
2022/08/29 07:43:32;;;;;;;15.27;10.15;;;25.20;80.80;;;;;;5073969;28;20052;-9
2022/08/29 07:45:58;;;;;;;14.38;9.35;;;25.50;80.40;;;;;;5073955;28;20082;-8
2022/08/29 07:48:25;;;;;;;13.98;9.73;;;25.70;79.10;;;;;;5073918;28;20024;-9
2022/08/29 07:50:52;;;;;;;10.82;8.55;;;25.90;78.30;;;;;;5073368;28;20060;-9
2022/08/29 07:53:18;;;;;;;10.15;7.78;;;26.10;78.60;;;;;;5074133;28;20051;-8
2022/08/29 07:55:45;;;;;;;13.00;9.20;;;26.40;78.40;;;;;;5074212;28;20038;-7
2022/08/29 07:58:11;;;;;;;15.02;9.02;;;26.70;77.20;;;;;;5073199;28;20020;-8
2022/08/29 08:00:37;;;;;;;10.90;7.70;;;26.90;75.10;;;;;;5089346;28;20020;-8
2022/08/29 08:03:03;;;;;;;12.48;7.13;;;27.40;74.70;;;;;;5073526;28;20346;-9
2022/08/29 08:05:29;;;;;;;9.95;8.13;;;27.80;74.50;;;;;;5073781;28;20107;-8
2022/08/29 08:07:55;;;;;;;10.70;7.35;;;28.10;72.90;;;;;;5073897;28;20024;-8
2022/08/29 08:10:21;;;;;;;11.63;8.48;;;28.50;73.00;;;;;;5073636;28;20020;-9
2022/08/29 08:12:48;;;;;;;11.13;7.43;;;28.70;69.80;;;;;;5073724;28;20029;-9
2022/08/29 08:15:15;;;;;;;10.32;8.00;;;28.90;69.50;;;;;;5073438;28;20488;-8
2022/08/29 08:17:42;;;;;;;9.45;7.25;;;29.10;68.50;;;;;;5089372;28;20056;-8
2022/08/29 08:20:10;;;;;;;12.18;8.75;;;29.30;68.00;;;;;;5073402;28;20107;-9
2022/08/29 08:22:37;;;;;;;11.18;8.27;;;29.40;67.00;;;;;;5073345;28;20064;-9
2022/08/29 08:25:05;;;;;;;8.98;7.05;;;29.50;67.10;;;;;;5073132;28;20024;-9
2022/08/29 08:27:31;;;;;;;9.50;7.00;;;29.60;66.10;;;;;;5073304;28;20028;-9
2022/08/29 08:29:57;;;;;;;10.25;7.88;;;29.70;65.60;;;;;;5073134;28;20111;-9
2022/08/29 08:32:23;;;;;;;10.77;8.15;;;29.50;65.30;;;;;;5073143;28;20061;-8
2022/08/29 08:34:48;;;;;;;10.60;8.02;;;29.30;65.40;;;;;;5073026;28;20032;-10
2022/08/29 08:37:16;;;;;;;9.70;7.57;;;29.10;66.40;;;;;;5073547;28;20527;-10
2022/08/29 08:39:43;;;;;;;11.68;7.85;;;29.00;67.20;;;;;;5073163;28;20028;-9
2022/08/29 08:42:16;;;;;;;11.13;8.32;;;28.90;66.10;;;;;;5073488;28;20024;-10
2022/08/29 08:45:11;;;;;;;12.13;9.25;;;28.80;66.60;;;;;;5073410;28;20115;-10
2022/08/29 08:47:59;;;;;;;10.52;7.90;;;28.70;64.00;;;;;;5072986;28;20055;-9
2022/08/29 08:50:34;;;;;;;10.85;7.70;;;29.00;66.40;;;;;;5073166;28;20033;-9
2022/08/29 08:53:20;;;;;;;10.88;8.05;;;29.40;65.80;;;;;;5073056;28;20388;-9
2022/08/29 08:55:50;;;;;;;13.10;7.97;;;29.80;63.50;;;;;;5073748;28;20063;-10
2022/08/29 08:58:29;;;;;;;11.93;7.95;;;30.20;63.10;;;;;;5072958;28;20028;-9
2022/08/29 09:01:09;;;;;;;13.48;7.80;;;30.40;62.80;;;;;;5072772;28;20029;-10
2022/08/29 09:03:45;;;;;;;10.82;8.00;;;30.40;61.40;;;;;;5073289;28;20016;-9
2022/08/29 09:06:43;;;;;;;10.95;7.45;;;30.50;60.60;;;;;;5073216;28;20075;-9
2022/08/29 09:09:30;;;;;;;12.40;9.02;;;30.70;61.10;;;;;;5070465;28;20392;-9
2022/08/29 09:12:24;;;;;;;11.25;7.00;;;30.80;60.50;;;;;;5072727;28;20492;-9
2022/08/29 09:15:11;;;;;;;10.05;7.03;;;31.00;61.10;;;;;;5072444;28;20021;-10
2022/08/29 09:17:49;;;;;;;9.55;6.97;;;31.30;61.00;;;;;;5073035;28;20052;-10
2022/08/29 09:20:28;;;;;;;10.20;7.25;;;31.50;60.20;;;;;;5072774;28;20028;-10
2022/08/29 09:23:06;;;;;;;9.63;6.70;;;31.80;57.60;;;;;;5072858;28;20047;-10
2022/08/29 09:25:35;;;;;;;9.60;6.72;;;32.00;58.60;;;;;;5073019;28;20024;-10
2022/08/29 09:28:04;;;;;;;9.15;6.90;;;32.30;58.10;;;;;;5072670;28;20029;-10
2022/08/29 09:30:32;;;;;;;12.27;8.60;;;32.50;56.30;;;;;;5072633;28;20016;-9
2022/08/29 09:33:15;;;;;;;9.70;7.55;;;32.70;54.50;;;;;;5072333;28;20029;-10
2022/08/29 09:35:50;;;;;;;10.05;7.20;;;32.80;55.40;;;;;;5073071;28;20031;-10
2022/08/29 09:38:16;;;;;;;9.02;7.00;;;32.80;54.60;;;;;;5072848;28;20111;-10
2022/08/29 09:40:51;;;;;;;10.50;7.38;;;32.80;54.90;;;;;;5072697;28;20429;-10
2022/08/29 09:43:46;;;;;;;8.80;6.20;;;32.80;54.30;;;;;;5072706;28;20072;-11
2022/08/29 09:46:24;;;;;;;9.13;6.25;;;33.00;54.80;;;;;;5069472;28;20055;-10
2022/08/29 09:49:12;;;;;;;9.30;5.72;;;33.30;54.00;;;;;;5071641;28;20029;-10
2022/08/29 09:51:43;;;;;;;8.10;5.97;;;33.60;52.50;;;;;;5072327;28;20055;-10
2022/08/29 09:54:12;;;;;;;8.73;6.15;;;33.80;50.50;;;;;;5072464;28;20082;-10
2022/08/29 09:56:47;;;;;;;10.52;7.47;;;33.90;49.20;;;;;;5072981;28;20097;-10
2022/08/29 09:59:26;;;;;;;9.30;6.07;;;33.80;51.00;;;;;;5073781;28;20024;-10
2022/08/29 10:02:20;;;;;;;9.30;5.90;;;33.70;51.50;;;;;;5076268;28;20029;-10
2022/08/29 10:04:52;;;;;;;9.43;6.10;;;33.70;49.00;;;;;;5075960;28;20508;-10
2022/08/29 10:07:30;;;;;;;7.75;5.93;;;33.90;50.40;;;;;;5076254;28;20020;-10
2022/08/29 10:10:12;;;;;;;7.68;5.22;;;33.90;50.60;;;;;;5076514;28;20138;-10
2022/08/29 10:12:50;;;;;;;8.93;6.00;;;33.90;50.90;;;;;;5076545;28;20033;-10
2022/08/29 10:15:40;;;;;;;8.45;5.70;;;34.00;51.00;;;;;;5075832;28;20105;-10
2022/08/29 10:18:29;;;;;;;7.40;5.55;;;34.10;48.40;;;;;;5076047;28;20048;-10
2022/08/29 10:21:14;;;;;;;8.50;5.82;;;34.10;50.50;;;;;;5075437;28;20491;-10
2022/08/29 10:23:43;;;;;;;8.95;6.13;;;34.20;50.10;;;;;;5075593;28;20025;-10
2022/08/29 10:26:28;;;;;;;8.98;6.25;;;34.40;48.70;;;;;;5076131;28;20032;-10
2022/08/29 10:29:31;;;;;;;7.97;6.53;;;34.50;48.50;;;;;;5075260;28;20559;-10
2022/08/29 10:32:27;;;;;;;7.95;5.85;;;34.60;46.90;;;;;;5075386;28;20032;-9
2022/08/29 10:34:58;;;;;;;8.32;5.50;;;34.60;48.00;;;;;;5075535;28;20025;-10
2022/08/29 10:37:41;;;;;;;7.70;5.50;;;34.60;47.60;;;;;;5075949;28;20479;-10
2022/08/29 10:40:22;;;;;;;8.82;6.05;;;34.70;46.90;;;;;;5075712;28;20025;-10
2022/08/29 10:42:57;;;;;;;8.57;5.47;;;34.90;47.10;;;;;;5075083;28;20067;-10
2022/08/29 10:45:49;;;;;;;9.05;6.10;;;35.20;46.80;;;;;;5075194;28;20021;-10
2022/08/29 10:48:35;;;;;;;9.77;5.70;;;35.60;45.90;;;;;;5075214;28;20035;-10
2022/08/29 10:51:22;;;;;;;7.60;5.20;;;35.90;43.60;;;;;;5074807;28;20366;-11
2022/08/29 10:54:10;;;;;;;8.05;5.38;;;36.10;42.60;;;;;;5075591;28;20384;-11
2022/08/29 10:56:42;;;;;;;8.25;5.80;;;36.30;42.70;;;;;;5075240;28;20476;-10
2022/08/29 10:59:29;;;;;;;8.00;5.85;;;36.50;42.60;;;;;;5074998;28;20107;-11
2022/08/29 11:02:02;;;;;;;6.10;4.93;;;36.60;42.30;;;;;;5075214;28;20032;-10
2022/08/29 11:04:43;;;;;;;4.90;4.35;;;36.60;42.40;;;;;;5074879;28;20059;-10
2022/08/29 11:07:16;;;;;;;6.72;5.10;;;36.90;41.50;;;;;;5074664;28;20103;-10
2022/08/29 11:09:59;;;;;;;5.68;4.40;;;37.20;39.10;;;;;;5075099;28;20031;-10
2022/08/29 11:12:44;;;;;;;6.07;4.28;;;37.50;39.70;;;;;;5074982;28;20078;-11
2022/08/29 11:15:56;;;;;;;6.07;4.22;;;37.60;39.90;;;;;;5074344;28;20029;-11
2022/08/29 11:18:32;;;;;;;6.70;5.38;;;37.90;39.70;;;;;;5074820;28;20017;-10
2022/08/29 11:21:11;;;;;;;6.43;4.70;;;37.90;38.30;;;;;;5074525;28;20100;-11
2022/08/29 11:23:46;;;;;;;5.00;4.25;;;37.70;39.10;;;;;;5075058;28;20020;-10
2022/08/29 11:26:30;;;;;;;6.43;4.95;;;37.80;38.00;;;;;;5074428;28;20035;-11
2022/08/29 11:29:12;;;;;;;5.30;4.18;;;38.10;38.20;;;;;;5074979;28;20036;-10
2022/08/29 11:31:49;;;;;;;7.45;4.95;;;38.40;37.60;;;;;;5074450;28;20051;-11
2022/08/29 11:34:19;;;;;;;5.63;3.97;;;38.70;36.70;;;;;;5074593;28;20066;-11
2022/08/29 11:37:05;;;;;;;4.85;4.05;;;39.00;37.10;;;;;;5074468;28;20056;-10
2022/08/29 11:39:53;;;;;;;5.05;3.90;;;39.30;37.10;;;;;;5074442;28;20094;-11
2022/08/29 11:42:24;;;;;;;5.35;4.38;;;39.60;37.60;;;;;;5074025;28;20024;-11
2022/08/29 11:44:54;;;;;;;6.15;4.72;;;39.90;37.20;;;;;;5073754;28;20519;-10
2022/08/29 11:47:40;;;;;;;6.07;4.78;;;39.90;36.70;;;;;;5074239;28;20032;-10
2022/08/29 11:50:15;;;;;;;7.75;5.22;;;39.60;35.00;;;;;;5074027;28;20036;-10
2022/08/29 11:53:12;;;;;;;5.78;4.38;;;39.40;37.80;;;;;;5073750;28;20041;-12
2022/08/29 11:55:43;;;;;;;4.95;4.03;;;39.20;36.00;;;;;;5051878;28;20033;-10
2022/08/29 11:58:32;;;;;;;5.20;4.70;;;39.50;37.90;;;;;;5051718;28;20052;-10
2022/08/29 12:00:58;;;;;;;5.35;4.22;;;40.00;36.90;;;;;;5042599;28;20025;-11
2022/08/29 12:03:34;;;;;;;4.85;4.05;;;40.20;37.10;;;;;;5051702;28;20037;-11
2022/08/29 12:06:14;;;;;;;6.00;4.50;;;40.20;35.70;;;;;;5051602;28;20127;-10
2022/08/29 12:09:11;;;;;;;5.22;4.45;;;40.30;34.90;;;;;;5051526;28;20033;-10
2022/08/29 12:12:01;;;;;;;5.80;4.10;;;40.30;34.70;;;;;;5051386;28;20041;-10
2022/08/29 12:14:34;;;;;;;4.55;3.90;;;40.50;35.40;;;;;;5051364;28;20537;-10
2022/08/29 12:17:04;;;;;;;5.78;4.20;;;40.70;35.30;;;;;;5051206;28;20493;-11
2022/08/29 12:19:55;;;;;;;5.53;4.68;;;41.10;34.90;;;;;;5051396;28;20043;-11
2022/08/29 12:22:52;;;;;;;6.63;4.55;;;41.40;34.00;;;;;;5034182;28;20400;-11
2022/08/29 12:25:27;;;;;;;5.10;4.10;;;41.50;33.60;;;;;;5051958;28;20052;-10
2022/08/29 12:28:07;;;;;;;6.18;4.22;;;41.70;33.50;;;;;;5051203;28;20220;-11
2022/08/29 12:30:40;;;;;;;5.15;4.50;;;41.80;32.70;;;;;;5051197;28;20036;-11
2022/08/29 12:33:11;;;;;;;6.70;4.55;;;41.50;33.70;;;;;;5068768;28;20048;-11
2022/08/29 12:36:06;;;;;;;6.72;4.70;;;40.90;34.60;;;;;;5073191;28;20570;-10
2022/08/29 12:39:02;;;;;;;4.68;3.78;;;40.50;33.00;;;;;;5073462;28;20044;-11
2022/08/29 12:42:07;;;;;;;6.25;4.93;;;40.40;34.30;;;;;;5073027;28;20056;-11
2022/08/29 12:44:40;;;;;;;6.20;5.10;;;40.50;33.80;;;;;;5073112;28;20044;-11
2022/08/29 12:47:38;;;;;;;6.47;4.85;;;40.70;35.40;;;;;;5073242;28;20059;-11
2022/08/29 12:50:19;;;;;;;4.40;4.00;;;40.70;33.90;;;;;;5072833;28;20103;-11
2022/08/29 12:52:59;;;;;;;6.13;4.20;;;40.90;35.10;;;;;;5072865;28;20045;-11
2022/08/29 12:55:47;;;;;;;5.32;4.40;;;41.30;34.70;;;;;;5073328;28;20023;-11
2022/08/29 12:58:30;;;;;;;6.53;4.40;;;41.60;34.20;;;;;;5072683;28;20029;-11
2022/08/29 13:00:56;;;;;;;5.28;4.50;;;41.80;34.40;;;;;;5072667;28;20032;-11
2022/08/29 13:03:23;;;;;;;4.40;3.75;;;41.70;34.50;;;;;;5072910;28;20107;-11
2022/08/29 13:05:49;;;;;;;4.82;3.97;;;41.20;34.70;;;;;;5072858;28;20094;-11
2022/08/29 13:08:26;;;;;;;6.95;5.00;;;41.00;34.80;;;;;;5073213;28;20052;-10
2022/08/29 13:10:56;;;;;;;5.95;4.50;;;41.10;32.80;;;;;;5072786;28;20469;-11